METAR Data
IDs: Format: Raw Decoded Include TAF

Data at: 0701 UTC 11 Dec 2018

PAMD 110654Z AUTO 27022G27KT 5SM -SN BR BKN007 OVC011 02/01 A2848 RMK AO2 PK WND 26027/0654 CIG 004V010 P0000 FZRANO
PAMD 110651Z AUTO 27012G19KT 5SM -SN BR BKN005 OVC011 01/01 A2849 RMK AO2 RAE34SNB34 CIG 004V008 SLP640 P0010 T00110006 FZRANO
PAMD 110649Z AUTO 27015G19KT 5SM -SN BR BKN005 OVC011 01/01 A2850 RMK AO2 RAE34SNB34 CIG 004V008 P0010 FZRANO
PAMD 110646Z AUTO 27013G17KT 4SM -SN BR SCT005 OVC011 01/01 A2850 RMK AO2 RAE34SNB34 P0009 FZRANO
PAMD 110640Z AUTO 27010G20KT 3SM -SN BR BKN007 OVC012 01/00 A2850 RMK AO2 RAE34SNB34 CIG 004V010 P0008 FZRANO
PAMD 110627Z AUTO 28012G16KT 10SM -RA OVC013 02/02 A2850 RMK AO2 P0006 FZRANO
PAMD 110625Z AUTO 28010KT 10SM -RA OVC015 02/02 A2850 RMK AO2 P0005 FZRANO
PAMD 110623Z AUTO 29012KT 10SM -RA BKN013 OVC017 02/02 A2850 RMK AO2 P0005 FZRANO
PAMD 110528Z AUTO 32013G19KT 5SM -RA BR SCT011 OVC018 03/02 A2850 RMK AO2 P0006
PAMD 110451Z AUTO 32011KT 5SM -RA BR BKN011 OVC016 03/02 A2851 RMK AO2 SLP644 P0012 T00330022
PAMD 110413Z AUTO 35008G16KT 7SM RA BKN012 OVC020 03/02 A2852 RMK AO2 P0004
PAMD 110351Z AUTO 03011KT 9SM -RA SCT009 BKN015 OVC021 04/03 A2853 RMK AO2 SLP651 P0010 T00390028
PAMD 110342Z AUTO 03015KT 8SM -RA SCT009 BKN017 OVC023 04/03 A2853 RMK AO2 P0009
PAMD 110337Z AUTO 03014G18KT 8SM -RA SCT009 BKN014 OVC023 04/03 A2853 RMK AO2 P0008
PAMD 110329Z AUTO 02009KT 6SM RA BR BKN009 BKN014 OVC025 04/04 A2854 RMK AO2 CIG 007V013 P0006
PAMD 110324Z AUTO 01008KT 6SM RA BR SCT009 BKN014 OVC025 04/03 A2854 RMK AO2 P0005
PAMD 110316Z AUTO 03011G19KT 8SM RA SCT007 SCT012 OVC025 04/03 A2855 RMK AO2 P0003
PAMD 110310Z AUTO 03013G19KT 8SM -RA SCT007 BKN012 OVC025 04/03 A2855 RMK AO2 P0002
PAMD 110251Z AUTO 03012G16KT 10SM -RA BKN007 BKN014 OVC027 04/04 A2856 RMK AO2 SLP662 P0004 60005 T00440039 56053
PAMD 110153Z AUTO 06012KT 9SM -RA BKN009 OVC013 05/04 A2861 RMK AO2 CIG 007V010 P0000
PAMD 110151Z AUTO 07013KT 9SM -RA SCT007 BKN013 OVC020 05/04 A2861 RMK AO2 SLP678 P0001 T00500039
PAMD 110148Z AUTO 07012G19KT 9SM -RA SCT007 BKN013 OVC020 05/04 A2861 RMK AO2 P0001
PAMD 110143Z AUTO 07014KT 9SM -RA BKN009 OVC016 05/04 A2861 RMK AO2 CIG 007V013 P0001
PAMD 110141Z AUTO 07014KT 9SM -RA SCT009 BKN013 OVC021 05/04 A2861 RMK AO2 P0001
PAMD 110126Z AUTO 06015KT 8SM -RA BKN011 OVC014 04/04 A2862 RMK AO2 CIG 007V013 P0001
PAMD 110058Z AUTO 07016KT 7SM -RA BKN009 BKN014 OVC020 05/04 A2865 RMK AO2 CIG 006V011 P0001
PAMD 110055Z AUTO 07015KT 5SM -RA BR SCT009 BKN014 OVC020 05/04 A2865 RMK AO2 P0000
PAMD 110053Z AUTO 07016KT 4SM -RA BR SCT009 OVC017 05/04 A2865 RMK AO2 P0000
PAMD 110051Z AUTO 07016KT 2 1/2SM -RA BR SCT009 BKN015 OVC020 05/04 A2865 RMK AO2 SLP694 P0000 T00500039
PAMD 110048Z AUTO 07015KT 3SM -RA BR SCT009 BKN013 OVC020 05/04 A2866 RMK AO2 P0000
PAMD 110046Z AUTO 08015KT 2 1/2SM -RA BR SCT009 BKN013 OVC023 05/04 A2866 RMK AO2 VIS 1 1/2V5 P0000
PAMD 110036Z AUTO 08014KT 9SM SCT009 OVC017 05/04 A2867 RMK AO2 RAE35 P0000
PAMD 110033Z AUTO 08014KT 10SM -RA SCT009 BKN012 OVC019 05/04 A2867 RMK AO2 P0000
PAMD 110023Z AUTO 08014KT 6SM -RA BR BKN009 OVC016 05/04 A2868 RMK AO2 CIG 007V012 PRESFR P0000
PAMD 110013Z AUTO 08015KT 5SM -RA BR FEW007 BKN013 OVC018 04/03 A2869 RMK AO2 P0000
PAMD 110011Z AUTO 08016KT 6SM BR SCT010 BKN015 OVC026 05/03 A2869 RMK AO2 RAE10 P0000
PAMD 110007Z AUTO 08017KT 10SM -RA FEW007 BKN012 OVC026 05/03 A2870 RMK AO2 P0000
PAMD 110003Z AUTO 09015KT 10SM -RA BKN010 BKN018 OVC029 04/03 A2870 RMK AO2 CIG 007V016 PRESFR P0000
PAMD 102359Z AUTO 09014G21KT 10SM -RA SCT010 BKN016 OVC028 04/03 A2871 RMK AO2 PRESFR P0000
PAMD 102351Z AUTO 08016G21KT 10SM -RA BKN013 OVC018 05/03 A2872 RMK AO2 SLP715 P0000 60001 T00500033 10056 20044 58054
PAMD 102300Z AUTO 08015KT 6SM -RA BR OVC013 04/03 A2877 RMK AO2 P0000
PAMD 102251Z AUTO 07015KT 9SM -RA BKN015 BKN020 OVC029 04/03 A2878 RMK AO2 RAB2153 SLP737 P0001 T00440028
PAMD 102232Z AUTO 08017G22KT 9SM -RA FEW013 BKN020 OVC050 04/02 A2880 RMK AO2 RAB2153 P0001
PAMD 102212Z AUTO 09017KT 8SM -RA BKN013 BKN018 OVC024 04/03 A2881 RMK AO2 RAB2153 P0000
PAMD 102205Z AUTO 08017KT 10SM -RA BKN016 OVC024 04/03 A2882 RMK AO2 RAB2153 P0000
PAMD 102201Z AUTO 09016KT 9SM -RA BKN014 OVC021 04/03 A2882 RMK AO2 RAB2153 P0000
PAMD 102151Z AUTO 09018KT 7SM BKN016 OVC025 04/02 A2883 RMK AO2 SLP753 T00440022
PAMD 102051Z AUTO 11020KT 10SM FEW028 SCT041 OVC050 04/02 A2888 RMK AO2 PK WND 11029/2018 RAB37E49 SLP769 P0000 60000 T00440017 58037
PAMD 102043Z AUTO 12018KT 10SM -RA FEW017 BKN039 OVC055 04/02 A2888 RMK AO2 PK WND 11029/2018 RAB37 P0000
PAMD 102038Z AUTO 12018G26KT 10SM -RA FEW017 BKN029 OVC050 04/02 A2889 RMK AO2 PK WND 11029/2018 RAB37 P0000
PAMD 102036Z AUTO 11020G27KT 10SM SCT020 BKN031 OVC050 04/02 A2889 RMK AO2 PK WND 11029/2018
PAMD 102021Z AUTO 12025KT 10SM FEW013 SCT019 BKN027 05/02 A2888 RMK AO2 PK WND 11029/2018 PRESFR
PAMD 101951Z AUTO 10013KT 10SM FEW027 BKN048 OVC055 06/02 A2892 RMK AO2 RAB26E37 SLP783 P0000 T00560017
PAMD 101922Z AUTO 11017KT 10SM SCT025 BKN055 06/02 A2893 RMK AO2
PAMD 101913Z AUTO 11013KT 10SM BKN025 BKN055 BKN070 06/02 A2894 RMK AO2
PAMD 101851Z AUTO 12010KT 10SM FEW025 SCT055 BKN070 05/01 A2895 RMK AO2 RAB26E40 SLP796 P0000 T00500011
PAMD 101832Z AUTO 13012KT 7SM -RA FEW023 BKN043 OVC060 05/02 A2896 RMK AO2 RAB26 P0000
PAMD 101830Z AUTO 12011KT 7SM -RA SCT023 BKN028 OVC070 05/02 A2897 RMK AO2 RAB26 P0000
PAMD 101816Z AUTO 13012KT 10SM SCT026 BKN039 OVC080 05/01 A2897 RMK AO2
PAMD 101809Z AUTO 12013KT 10SM BKN026 BKN039 BKN075 05/01 A2898 RMK AO2
PAMD 101751Z AUTO 13012KT 10SM SCT024 BKN090 05/01 A2899 RMK AO2 SLP806 T00500011 10050 20033 58018
PAMD 101731Z AUTO 13012KT 10SM SCT024 BKN095 05/02 A2899 RMK AO2
PAMD 101716Z AUTO 13011KT 10SM BKN024 05/02 A2900 RMK AO2
PAMD 101651Z AUTO 13012KT 10SM FEW022 04/02 A2901 RMK AO2 SLP814 T00440017
PAMD 101551Z AUTO 13014KT 10SM FEW021 SCT080 BKN095 05/02 A2903 RMK AO2 SLP822 T00500017
PAMD 101451Z AUTO 16012KT 10SM FEW024 04/01 A2904 RMK AO2 SLP825 T00440006 51004
PAMD 101432Z AUTO 17013KT 10SM SCT022 04/02 A2904 RMK AO2
PAMD 101428Z AUTO 16011KT 10SM BKN022 04/02 A2904 RMK AO2
PAMD 101351Z AUTO 17012KT 10SM FEW017 04/02 A2904 RMK AO2 SLP824 T00390022
PAMD 101251Z AUTO 18012KT 10SM CLR 03/02 A2903 RMK AO2 SLP822 T00330017
PAMD 101151Z AUTO 21012KT 10SM CLR 04/02 A2903 RMK AO2 WSHFT 1047 RAB00E16 SLP820 P0000 60028 70029 T00390022 10050 20022 55033
PAMD 101121Z AUTO 21009KT 10SM FEW014 SCT021 BKN039 04/03 A2902 RMK AO2 WSHFT 1047 RAB00E16 P0000
PAMD 101102Z AUTO 18010KT 10SM -RA FEW009 BKN015 OVC021 04/03 A2902 RMK AO2 WSHFT 1047 RAB00 P0000
PAMD 101056Z AUTO 13012KT 9SM FEW009 BKN015 OVC021 05/04 A2902 RMK AO2
PAMD 101054Z AUTO 12010KT 9SM FEW009 BKN013 OVC021 05/04 A2902 RMK AO2
PAMD 101051Z AUTO 10012KT 9SM FEW009 BKN015 OVC021 05/04 A2902 RMK AO2 PK WND 08036/1015 RAE42 SLP819 P0002 T00500039
PAMD 101042Z AUTO 09019G24KT 9SM SCT008 BKN013 OVC022 05/04 A2902 RMK AO2 PK WND 08036/1015 RAE42 P0002
PAMD 101005Z AUTO 08028G34KT 5SM -RA BR OVC008 03/03 A2904 RMK AO2 PK WND 08034/1005 CIG 007V013 PRESFR P0002
PAMD 100951Z AUTO 08023G31KT 3SM RA BR OVC010 03/02 A2907 RMK AO2 PK WND 08031/0949 RAE00B16UPB09E16SNB00E09 CIG 007V013 SLP833 P0012 T00330022
PAMD 100919Z AUTO 07016G21KT 5SM RA BR OVC010 02/01 A2911 RMK AO2 RAE00B16UPB09E16SNB00E09 CIG 007V013 P0007 FZRANO
PAMD 100901Z AUTO 08018KT 5SM -SN BR BKN008 OVC014 02/01 A2912 RMK AO2 RAE00SNB00 CIG 007V011 P0003 FZRANO
PAMD 100851Z AUTO 09020KT 6SM RA BR BKN010 OVC016 02/01 A2912 RMK AO2 PK WND 10032/0758 CIG 007V012 SLP853 P0007 60014 T00220011 55002 FZRANO
PAMD 100751Z AUTO 10026G31KT 8SM -RA OVC010 03/02 A2911 RMK AO2 PK WND 11033/0726 SLP847 P0004 T00280017 400390006
PAMD 100708Z AUTO 10025G29KT 8SM -RA BKN012 BKN023 OVC028 03/02 A2912 RMK AO2 PK WND 09032/0657 P0000
PAMD 100651Z AUTO 10025G29KT 8SM -RA BKN009 OVC016 03/01 A2911 RMK AO2 PK WND 10032/0626 RAB0553UPB03E10 CIG 007V013 SLP849 P0003 T00280011
PAMD 100644Z AUTO 10024G29KT 8SM -RA BKN009 OVC014 03/01 A2912 RMK AO2 PK WND 10032/0626 RAB0553UPB03E10 CIG 008V011 P0002
PAMD 100625Z AUTO 10023G30KT 7SM -RA FEW009 SCT013 OVC020 03/01 A2913 RMK AO2 PK WND 11030/0625 RAB0553UPB03E10 P0001
PAMD 100557Z AUTO 10024G30KT 10SM -RA SCT022 BKN027 OVC042 03/M01 A2913 RMK AO2 PK WND 11030/0554 RAB53 P0000
PAMD 100551Z AUTO 11022G25KT 10SM SCT029 BKN037 OVC047 03/M01 A2913 RMK AO2 PK WND 11030/0539 RAB05E16B34E46UPB16E19 SLP855 P0000 60000 T00331006 10039 20011 57019
PAMD 100451Z AUTO 11015KT 10SM BKN036 BKN046 OVC060 03/M02 A2915 RMK AO2 SLP861 T00331022
PAMD 100351Z AUTO 10014KT 10SM BKN041 BKN080 OVC095 03/M03 A2916 RMK AO2 SLP866 T00281033
PAMD 100251Z AUTO 12009KT 10SM BKN110 02/M04 A2918 RMK AO2 SLP873 T00221039 58009 FZRANO
PAMD 100151Z AUTO 15008KT 10SM CLR 02/M05 A2920 RMK AO2 SLP879 T00171050 FZRANO
PAMD 100051Z AUTO 17005KT 10SM FEW040 02/M05 A2921 RMK AO2 SLP881 T00171050 FZRANO
PAMD 092351Z AUTO 20006KT 10SM FEW040 02/M05 A2921 RMK AO2 SLP882 60000 T00221050 10022 20011 58004 FZRANO
PAMD 092251Z AUTO 24009KT 10SM FEW055 SCT070 02/M03 A2922 RMK AO2 UPB2157E00RAB10E28SNE2157 SLP886 P0000 T00171028 FZRANO
PAMD 092151Z AUTO 16007KT 4SM -SN FEW015 SCT032 BKN048 02/M03 A2922 RMK AO2 UPE2058RAB40E45SNB45 SLP885 P0000 T00171028 FZRANO
PAMD 092051Z AUTO 19007KT 8SM UP SCT031 BKN043 OVC060 01/M03 A2922 RMK AO2 RAB30E35UPB50SNB35E50 SLP887 P0000 60000 T00111033 51006 FZRANO
PAMD 091951Z AUTO 23008KT 10SM SCT048 02/M06 A2922 RMK AO2 SLP885 T00171061 FZRANO